Dubuque Regional Airport
KDBQ : now visible

Airfield :











YOU CAN JOIN US ON...

 
LOGIN :

Register | Disclaimer

   EN    FR    IT 

 









Legend :    VFR   Marginal VFR   IFR   Intensive IFR   Very Intensive IFR
Visi :
Ceiling :
>= 8 km
>= 3000ft
5 to 8 km
1000 to 3000 ft
1500m to 5 km
500 to 1000 ft
800 to 1500m
200 to 500 ft
< 800m
< 200 ft
Symbols :   Thunderstorms  Fog  Heavy snow  Heavy precipitations  Wind > 20 kt






- Airport Elevation : 1077 ft
- IATA code : DBQ


KDBQ - Dubuque Regional

CURRENT METAR :
  • 142053Z 30014KT 6SM HZ OVC015 M05/M09 A2982 RMK AO2 SLP114 T10501089 53009

EXPIRED METARs :
  • 142018Z 30011KT 8SM BKN020 OVC035 M04/M08 A2981 RMK AO2 T10391083
  • 142011Z 31010KT 8SM SCT020 OVC035 M04/M09 A2981 RMK AO2 T10441089
  • 141953Z 31012KT 5SM HZ BKN019 OVC034 M04/M09 A2980 RMK AO2 SLP106 T10441089
  • 141910Z 30013G19KT 5SM HZ BKN019 OVC032 M04/M09 A2979 RMK AO2 T10441089
  • 141903Z 32012KT 7SM SCT019 OVC032 M04/M09 A2979 RMK AO2 T10441089
  • 141853Z 31013KT 7SM BKN019 OVC032 M04/M09 A2979 RMK AO2 SLP102 T10441089
  • 141838Z 32013KT 7SM SCT020 OVC032 M04/M09 A2980 RMK AO2 T10441089

TAF KDBQ
Valid from the 14 at 19:00 until the 15 at 18:00 UTC


141914Z 1419/1518 30013G19KT 5SM HZ BKN019 OVC030
FM142100 32013KT P6SM BKN025
FM150000 32010KT P6SM SCT080
FM151000 34006KT P6SM SCT150



MET'MAP, your aeronautical weather chart ! - Copyright ORBIFLY December 2007 - Disclaimer

ORBIFLY MET'MAP TEAM :

Programming & Development : Alexandra Zaïnal
Concept & original design : Baudouin d'Aumeries
Assistance for programming : Marc-Olivier Méhu
Technical & hardware support : Manuel Goepfert

Contact : metmap@orbifly.com




SOURCES & CREDITS :

   NOAA       Earth
Advisory